sensor_id;sensor_type;location;lat;lon;timestamp;P1;durP1;ratioP1;P2;durP2;ratioP2
20415;SDS011;10367;52.202;5.996;2022-10-16T00:01:43;18.17;;;10.07;;
20415;SDS011;10367;52.202;5.996;2022-10-16T00:04:12;18.37;;;11.23;;
20415;SDS011;10367;52.202;5.996;2022-10-16T00:06:41;21.57;;;12.80;;
20415;SDS011;10367;52.202;5.996;2022-10-16T00:09:09;14.90;;;10.93;;
20415;SDS011;10367;52.202;5.996;2022-10-16T00:11:41;16.00;;;11.43;;
20415;SDS011;10367;52.202;5.996;2022-10-16T00:14:10;18.57;;;12.27;;
20415;SDS011;10367;52.202;5.996;2022-10-16T00:16:40;13.90;;;12.03;;
20415;SDS011;10367;52.202;5.996;2022-10-16T00:19:09;12.20;;;11.00;;
20415;SDS011;10367;52.202;5.996;2022-10-16T00:21:39;14.27;;;11.63;;
20415;SDS011;10367;52.202;5.996;2022-10-16T00:24:08;17.37;;;12.03;;
20415;SDS011;10367;52.202;5.996;2022-10-16T00:26:37;13.30;;;11.90;;
20415;SDS011;10367;52.202;5.996;2022-10-16T00:29:08;15.67;;;12.23;;
20415;SDS011;10367;52.202;5.996;2022-10-16T00:31:40;13.40;;;11.90;;
20415;SDS011;10367;52.202;5.996;2022-10-16T00:34:09;12.07;;;10.80;;
20415;SDS011;10367;52.202;5.996;2022-10-16T00:36:37;13.40;;;11.20;;
20415;SDS011;10367;52.202;5.996;2022-10-16T00:39:06;14.53;;;12.23;;
20415;SDS011;10367;52.202;5.996;2022-10-16T00:41:35;12.47;;;10.97;;
20415;SDS011;10367;52.202;5.996;2022-10-16T00:47:17;12.60;;;11.33;;
20415;SDS011;10367;52.202;5.996;2022-10-16T00:49:49;12.80;;;11.57;;
20415;SDS011;10367;52.202;5.996;2022-10-16T00:52:20;15.47;;;11.90;;
20415;SDS011;10367;52.202;5.996;2022-10-16T00:54:50;13.57;;;12.17;;
20415;SDS011;10367;52.202;5.996;2022-10-16T00:57:21;12.23;;;10.97;;
20415;SDS011;10367;52.202;5.996;2022-10-16T00:59:50;15.43;;;11.73;;
20415;SDS011;10367;52.202;5.996;2022-10-16T01:02:21;12.73;;;11.47;;
20415;SDS011;10367;52.202;5.996;2022-10-16T01:04:50;15.47;;;11.53;;
20415;SDS011;10367;52.202;5.996;2022-10-16T01:07:25;12.20;;;11.13;;
20415;SDS011;10367;52.202;5.996;2022-10-16T01:10:07;13.43;;;11.27;;
20415;SDS011;10367;52.202;5.996;2022-10-16T01:12:44;11.60;;;10.30;;
20415;SDS011;10367;52.202;5.996;2022-10-16T01:15:18;17.90;;;13.00;;
20415;SDS011;10367;52.202;5.996;2022-10-16T01:17:56;13.47;;;11.40;;
20415;SDS011;10367;52.202;5.996;2022-10-16T01:20:30;15.63;;;12.33;;
20415;SDS011;10367;52.202;5.996;2022-10-16T01:25:58;12.13;;;10.93;;
20415;SDS011;10367;52.202;5.996;2022-10-16T01:28:41;13.40;;;11.73;;
20415;SDS011;10367;52.202;5.996;2022-10-16T01:31:17;13.00;;;11.60;;
20415;SDS011;10367;52.202;5.996;2022-10-16T01:33:50;15.97;;;11.73;;
20415;SDS011;10367;52.202;5.996;2022-10-16T01:36:25;14.23;;;12.03;;
20415;SDS011;10367;52.202;5.996;2022-10-16T01:38:59;12.20;;;11.10;;
20415;SDS011;10367;52.202;5.996;2022-10-16T01:41:30;13.40;;;11.60;;
20415;SDS011;10367;52.202;5.996;2022-10-16T01:44:04;12.20;;;10.90;;
20415;SDS011;10367;52.202;5.996;2022-10-16T01:46:37;14.07;;;12.33;;
20415;SDS011;10367;52.202;5.996;2022-10-16T01:49:09;15.67;;;10.63;;
20415;SDS011;10367;52.202;5.996;2022-10-16T01:51:40;12.47;;;11.10;;
20415;SDS011;10367;52.202;5.996;2022-10-16T01:54:11;11.27;;;10.30;;
20415;SDS011;10367;52.202;5.996;2022-10-16T01:56:42;20.23;;;14.70;;
20415;SDS011;10367;52.202;5.996;2022-10-16T01:59:13;12.97;;;11.87;;
20415;SDS011;10367;52.202;5.996;2022-10-16T02:01:47;16.03;;;12.80;;
20415;SDS011;10367;52.202;5.996;2022-10-16T02:04:18;14.67;;;12.40;;
20415;SDS011;10367;52.202;5.996;2022-10-16T02:06:51;15.03;;;12.47;;
20415;SDS011;10367;52.202;5.996;2022-10-16T02:09:20;13.17;;;11.97;;
20415;SDS011;10367;52.202;5.996;2022-10-16T02:11:49;14.57;;;13.17;;
20415;SDS011;10367;52.202;5.996;2022-10-16T02:14:21;15.67;;;12.57;;
20415;SDS011;10367;52.202;5.996;2022-10-16T02:16:51;16.47;;;12.83;;
20415;SDS011;10367;52.202;5.996;2022-10-16T02:19:20;12.90;;;11.47;;
20415;SDS011;10367;52.202;5.996;2022-10-16T02:21:50;13.80;;;11.83;;
20415;SDS011;10367;52.202;5.996;2022-10-16T02:24:23;15.10;;;12.30;;
20415;SDS011;10367;52.202;5.996;2022-10-16T02:27:00;12.40;;;11.20;;
20415;SDS011;10367;52.202;5.996;2022-10-16T02:29:38;14.23;;;12.83;;
20415;SDS011;10367;52.202;5.996;2022-10-16T02:32:11;15.10;;;12.27;;
20415;SDS011;10367;52.202;5.996;2022-10-16T02:34:42;15.37;;;12.13;;
20415;SDS011;10367;52.202;5.996;2022-10-16T02:37:13;13.33;;;12.03;;
20415;SDS011;10367;52.202;5.996;2022-10-16T02:39:44;13.93;;;12.50;;
20415;SDS011;10367;52.202;5.996;2022-10-16T02:42:13;13.70;;;11.23;;
20415;SDS011;10367;52.202;5.996;2022-10-16T02:44:43;14.03;;;12.63;;
20415;SDS011;10367;52.202;5.996;2022-10-16T02:47:12;14.47;;;12.87;;
20415;SDS011;10367;52.202;5.996;2022-10-16T02:49:41;15.10;;;12.73;;
20415;SDS011;10367;52.202;5.996;2022-10-16T02:52:10;12.27;;;11.03;;
20415;SDS011;10367;52.202;5.996;2022-10-16T02:54:38;14.77;;;12.53;;
20415;SDS011;10367;52.202;5.996;2022-10-16T02:57:07;13.17;;;11.80;;
20415;SDS011;10367;52.202;5.996;2022-10-16T02:59:36;13.67;;;12.30;;
20415;SDS011;10367;52.202;5.996;2022-10-16T03:02:06;13.27;;;12.17;;
20415;SDS011;10367;52.202;5.996;2022-10-16T03:04:35;13.63;;;12.33;;
20415;SDS011;10367;52.202;5.996;2022-10-16T03:07:04;12.13;;;11.17;;
20415;SDS011;10367;52.202;5.996;2022-10-16T03:09:32;15.47;;;13.73;;
20415;SDS011;10367;52.202;5.996;2022-10-16T03:12:01;13.07;;;11.80;;
20415;SDS011;10367;52.202;5.996;2022-10-16T03:14:30;13.73;;;12.10;;
20415;SDS011;10367;52.202;5.996;2022-10-16T03:17:00;14.37;;;12.87;;
20415;SDS011;10367;52.202;5.996;2022-10-16T03:19:30;14.30;;;12.80;;
20415;SDS011;10367;52.202;5.996;2022-10-16T03:21:59;13.23;;;12.00;;
20415;SDS011;10367;52.202;5.996;2022-10-16T03:24:27;13.33;;;11.73;;
20415;SDS011;10367;52.202;5.996;2022-10-16T03:26:56;13.17;;;11.87;;
20415;SDS011;10367;52.202;5.996;2022-10-16T03:29:25;19.23;;;12.57;;
20415;SDS011;10367;52.202;5.996;2022-10-16T03:31:56;13.20;;;11.90;;
20415;SDS011;10367;52.202;5.996;2022-10-16T03:34:24;12.60;;;11.33;;
20415;SDS011;10367;52.202;5.996;2022-10-16T03:36:55;13.10;;;11.73;;
20415;SDS011;10367;52.202;5.996;2022-10-16T03:39:24;12.27;;;11.13;;
20415;SDS011;10367;52.202;5.996;2022-10-16T03:41:52;16.17;;;13.07;;
20415;SDS011;10367;52.202;5.996;2022-10-16T03:44:21;19.40;;;12.57;;
20415;SDS011;10367;52.202;5.996;2022-10-16T03:46:50;11.60;;;10.50;;
20415;SDS011;10367;52.202;5.996;2022-10-16T03:49:18;13.80;;;11.93;;
20415;SDS011;10367;52.202;5.996;2022-10-16T03:51:47;12.90;;;11.53;;
20415;SDS011;10367;52.202;5.996;2022-10-16T03:54:20;13.17;;;11.97;;
20415;SDS011;10367;52.202;5.996;2022-10-16T03:56:48;16.80;;;12.47;;
20415;SDS011;10367;52.202;5.996;2022-10-16T03:59:17;12.10;;;11.00;;
20415;SDS011;10367;52.202;5.996;2022-10-16T04:01:46;20.83;;;15.50;;
20415;SDS011;10367;52.202;5.996;2022-10-16T04:04:14;14.87;;;12.77;;
20415;SDS011;10367;52.202;5.996;2022-10-16T04:06:43;15.90;;;11.80;;
20415;SDS011;10367;52.202;5.996;2022-10-16T04:09:12;13.30;;;11.90;;
20415;SDS011;10367;52.202;5.996;2022-10-16T04:11:42;12.47;;;11.43;;
20415;SDS011;10367;52.202;5.996;2022-10-16T04:14:10;13.33;;;11.27;;
20415;SDS011;10367;52.202;5.996;2022-10-16T04:16:39;12.90;;;11.60;;
20415;SDS011;10367;52.202;5.996;2022-10-16T04:19:08;11.40;;;10.30;;
20415;SDS011;10367;52.202;5.996;2022-10-16T04:21:37;13.83;;;11.77;;
20415;SDS011;10367;52.202;5.996;2022-10-16T04:24:06;11.90;;;10.87;;
20415;SDS011;10367;52.202;5.996;2022-10-16T04:26:35;12.00;;;10.83;;
20415;SDS011;10367;52.202;5.996;2022-10-16T04:29:05;11.47;;;10.40;;
20415;SDS011;10367;52.202;5.996;2022-10-16T04:31:33;12.33;;;11.17;;
20415;SDS011;10367;52.202;5.996;2022-10-16T04:34:02;10.80;;;10.00;;
20415;SDS011;10367;52.202;5.996;2022-10-16T04:36:31;12.23;;;11.23;;
20415;SDS011;10367;52.202;5.996;2022-10-16T04:38:59;18.20;;;10.93;;
20415;SDS011;10367;52.202;5.996;2022-10-16T04:41:28;11.70;;;10.63;;
20415;SDS011;10367;52.202;5.996;2022-10-16T04:43:57;11.83;;;10.57;;
20415;SDS011;10367;52.202;5.996;2022-10-16T04:46:27;12.60;;;11.30;;
20415;SDS011;10367;52.202;5.996;2022-10-16T04:48:55;13.37;;;12.07;;
20415;SDS011;10367;52.202;5.996;2022-10-16T04:51:24;12.47;;;11.17;;
20415;SDS011;10367;52.202;5.996;2022-10-16T04:53:54;13.30;;;10.47;;
20415;SDS011;10367;52.202;5.996;2022-10-16T04:56:23;15.70;;;12.50;;
20415;SDS011;10367;52.202;5.996;2022-10-16T04:58:52;13.33;;;11.80;;
20415;SDS011;10367;52.202;5.996;2022-10-16T05:01:20;12.30;;;11.10;;
20415;SDS011;10367;52.202;5.996;2022-10-16T05:03:50;11.90;;;10.83;;
20415;SDS011;10367;52.202;5.996;2022-10-16T05:06:19;12.80;;;11.60;;
20415;SDS011;10367;52.202;5.996;2022-10-16T05:08:48;12.83;;;11.40;;
20415;SDS011;10367;52.202;5.996;2022-10-16T05:11:16;13.47;;;11.90;;
20415;SDS011;10367;52.202;5.996;2022-10-16T05:13:45;12.37;;;11.23;;
20415;SDS011;10367;52.202;5.996;2022-10-16T05:16:19;13.13;;;11.80;;
20415;SDS011;10367;52.202;5.996;2022-10-16T05:18:47;13.50;;;11.93;;
20415;SDS011;10367;52.202;5.996;2022-10-16T05:21:23;15.10;;;12.50;;
20415;SDS011;10367;52.202;5.996;2022-10-16T05:23:52;17.80;;;11.73;;
20415;SDS011;10367;52.202;5.996;2022-10-16T05:26:21;14.47;;;12.10;;
20415;SDS011;10367;52.202;5.996;2022-10-16T05:28:50;15.07;;;10.77;;
20415;SDS011;10367;52.202;5.996;2022-10-16T05:31:19;16.37;;;13.00;;
20415;SDS011;10367;52.202;5.996;2022-10-16T05:33:48;12.93;;;11.43;;
20415;SDS011;10367;52.202;5.996;2022-10-16T05:36:16;12.60;;;11.30;;
20415;SDS011;10367;52.202;5.996;2022-10-16T05:38:49;13.73;;;11.83;;
20415;SDS011;10367;52.202;5.996;2022-10-16T05:41:18;14.30;;;11.90;;
20415;SDS011;10367;52.202;5.996;2022-10-16T05:43:48;14.73;;;12.40;;
20415;SDS011;10367;52.202;5.996;2022-10-16T05:46:17;12.73;;;11.03;;
20415;SDS011;10367;52.202;5.996;2022-10-16T05:48:45;12.13;;;11.03;;
20415;SDS011;10367;52.202;5.996;2022-10-16T05:51:14;12.23;;;11.07;;
20415;SDS011;10367;52.202;5.996;2022-10-16T05:53:43;15.53;;;12.80;;
20415;SDS011;10367;52.202;5.996;2022-10-16T05:56:13;12.73;;;11.47;;
20415;SDS011;10367;52.202;5.996;2022-10-16T05:58:42;15.50;;;12.57;;
20415;SDS011;10367;52.202;5.996;2022-10-16T06:01:12;14.80;;;12.30;;
20415;SDS011;10367;52.202;5.996;2022-10-16T06:03:46;14.60;;;12.13;;
20415;SDS011;10367;52.202;5.996;2022-10-16T06:06:15;19.30;;;13.67;;
20415;SDS011;10367;52.202;5.996;2022-10-16T06:08:48;14.03;;;11.37;;
20415;SDS011;10367;52.202;5.996;2022-10-16T06:11:19;16.67;;;11.73;;
20415;SDS011;10367;52.202;5.996;2022-10-16T06:13:49;13.67;;;11.80;;
20415;SDS011;10367;52.202;5.996;2022-10-16T06:16:19;12.60;;;11.40;;
20415;SDS011;10367;52.202;5.996;2022-10-16T06:18:47;14.70;;;12.13;;
20415;SDS011;10367;52.202;5.996;2022-10-16T06:21:19;15.73;;;11.60;;
20415;SDS011;10367;52.202;5.996;2022-10-16T06:23:48;13.73;;;12.27;;
20415;SDS011;10367;52.202;5.996;2022-10-16T06:26:19;12.97;;;11.30;;
20415;SDS011;10367;52.202;5.996;2022-10-16T06:28:50;14.87;;;12.77;;
20415;SDS011;10367;52.202;5.996;2022-10-16T06:31:18;11.43;;;10.43;;
20415;SDS011;10367;52.202;5.996;2022-10-16T06:33:49;17.37;;;11.07;;
20415;SDS011;10367;52.202;5.996;2022-10-16T06:36:19;12.27;;;11.07;;
20415;SDS011;10367;52.202;5.996;2022-10-16T06:38:48;14.37;;;12.03;;
20415;SDS011;10367;52.202;5.996;2022-10-16T06:41:19;12.97;;;11.67;;
20415;SDS011;10367;52.202;5.996;2022-10-16T06:43:49;12.23;;;11.00;;
20415;SDS011;10367;52.202;5.996;2022-10-16T06:46:20;12.23;;;11.13;;
20415;SDS011;10367;52.202;5.996;2022-10-16T06:48:50;13.93;;;12.47;;
20415;SDS011;10367;52.202;5.996;2022-10-16T06:51:20;18.83;;;13.07;;
20415;SDS011;10367;52.202;5.996;2022-10-16T06:53:51;13.20;;;11.70;;
20415;SDS011;10367;52.202;5.996;2022-10-16T06:56:31;13.47;;;11.83;;
20415;SDS011;10367;52.202;5.996;2022-10-16T06:59:01;12.30;;;11.10;;
20415;SDS011;10367;52.202;5.996;2022-10-16T07:01:31;12.57;;;11.27;;
20415;SDS011;10367;52.202;5.996;2022-10-16T07:04:00;11.63;;;10.57;;
20415;SDS011;10367;52.202;5.996;2022-10-16T07:06:30;12.63;;;11.33;;
20415;SDS011;10367;52.202;5.996;2022-10-16T07:09:02;12.33;;;11.33;;
20415;SDS011;10367;52.202;5.996;2022-10-16T07:11:34;14.43;;;12.70;;
20415;SDS011;10367;52.202;5.996;2022-10-16T07:14:04;16.63;;;13.37;;
20415;SDS011;10367;52.202;5.996;2022-10-16T07:16:33;12.20;;;11.20;;
20415;SDS011;10367;52.202;5.996;2022-10-16T07:19:01;12.73;;;11.50;;
20415;SDS011;10367;52.202;5.996;2022-10-16T07:21:31;12.50;;;11.30;;
20415;SDS011;10367;52.202;5.996;2022-10-16T07:24:04;13.30;;;11.90;;
20415;SDS011;10367;52.202;5.996;2022-10-16T07:26:36;16.23;;;12.63;;
20415;SDS011;10367;52.202;5.996;2022-10-16T07:29:06;15.47;;;12.57;;
20415;SDS011;10367;52.202;5.996;2022-10-16T07:31:40;13.40;;;12.23;;
20415;SDS011;10367;52.202;5.996;2022-10-16T07:34:10;13.47;;;12.23;;
20415;SDS011;10367;52.202;5.996;2022-10-16T07:36:43;16.43;;;12.87;;
20415;SDS011;10367;52.202;5.996;2022-10-16T07:39:13;12.27;;;11.13;;
20415;SDS011;10367;52.202;5.996;2022-10-16T07:41:43;14.53;;;13.17;;
20415;SDS011;10367;52.202;5.996;2022-10-16T07:44:11;13.03;;;11.93;;
20415;SDS011;10367;52.202;5.996;2022-10-16T07:46:40;13.23;;;12.13;;
20415;SDS011;10367;52.202;5.996;2022-10-16T07:49:09;14.23;;;12.87;;
20415;SDS011;10367;52.202;5.996;2022-10-16T07:51:38;14.30;;;12.97;;
20415;SDS011;10367;52.202;5.996;2022-10-16T07:54:07;13.77;;;12.57;;
20415;SDS011;10367;52.202;5.996;2022-10-16T07:56:36;14.53;;;12.27;;
20415;SDS011;10367;52.202;5.996;2022-10-16T07:59:11;13.63;;;12.47;;
20415;SDS011;10367;52.202;5.996;2022-10-16T08:01:40;14.50;;;13.10;;
20415;SDS011;10367;52.202;5.996;2022-10-16T08:04:12;15.43;;;12.63;;
20415;SDS011;10367;52.202;5.996;2022-10-16T08:06:40;13.77;;;12.43;;
20415;SDS011;10367;52.202;5.996;2022-10-16T08:09:09;14.33;;;12.93;;
20415;SDS011;10367;52.202;5.996;2022-10-16T08:11:41;15.30;;;13.80;;
20415;SDS011;10367;52.202;5.996;2022-10-16T08:14:14;18.57;;;15.00;;
20415;SDS011;10367;52.202;5.996;2022-10-16T08:16:43;15.53;;;13.60;;
20415;SDS011;10367;52.202;5.996;2022-10-16T08:19:11;14.13;;;12.83;;
20415;SDS011;10367;52.202;5.996;2022-10-16T08:21:42;15.73;;;14.10;;
20415;SDS011;10367;52.202;5.996;2022-10-16T08:24:14;14.57;;;12.93;;
20415;SDS011;10367;52.202;5.996;2022-10-16T08:26:43;14.77;;;13.37;;
20415;SDS011;10367;52.202;5.996;2022-10-16T08:29:14;16.47;;;14.70;;
20415;SDS011;10367;52.202;5.996;2022-10-16T08:31:43;15.33;;;13.77;;
20415;SDS011;10367;52.202;5.996;2022-10-16T08:34:11;15.63;;;14.03;;
20415;SDS011;10367;52.202;5.996;2022-10-16T08:36:40;14.23;;;12.93;;
20415;SDS011;10367;52.202;5.996;2022-10-16T08:39:09;14.50;;;13.07;;
20415;SDS011;10367;52.202;5.996;2022-10-16T08:41:49;16.53;;;14.83;;
20415;SDS011;10367;52.202;5.996;2022-10-16T08:44:39;14.87;;;13.47;;
20415;SDS011;10367;52.202;5.996;2022-10-16T08:47:18;15.43;;;13.80;;
20415;SDS011;10367;52.202;5.996;2022-10-16T08:49:53;17.60;;;14.23;;
20415;SDS011;10367;52.202;5.996;2022-10-16T08:52:25;16.07;;;13.60;;
20415;SDS011;10367;52.202;5.996;2022-10-16T08:54:58;21.80;;;13.63;;
20415;SDS011;10367;52.202;5.996;2022-10-16T08:57:27;15.37;;;13.73;;
20415;SDS011;10367;52.202;5.996;2022-10-16T08:59:59;15.33;;;13.87;;
20415;SDS011;10367;52.202;5.996;2022-10-16T09:02:35;15.97;;;14.27;;
20415;SDS011;10367;52.202;5.996;2022-10-16T09:05:16;14.30;;;12.87;;
20415;SDS011;10367;52.202;5.996;2022-10-16T09:07:54;19.67;;;14.97;;
20415;SDS011;10367;52.202;5.996;2022-10-16T09:10:36;23.97;;;15.00;;
20415;SDS011;10367;52.202;5.996;2022-10-16T09:13:16;17.53;;;13.77;;
20415;SDS011;10367;52.202;5.996;2022-10-16T09:15:53;18.10;;;14.73;;
20415;SDS011;10367;52.202;5.996;2022-10-16T09:18:29;15.73;;;14.10;;
20415;SDS011;10367;52.202;5.996;2022-10-16T09:21:06;18.70;;;14.43;;
20415;SDS011;10367;52.202;5.996;2022-10-16T09:23:41;19.13;;;14.30;;
20415;SDS011;10367;52.202;5.996;2022-10-16T09:26:11;15.93;;;13.97;;
20415;SDS011;10367;52.202;5.996;2022-10-16T09:28:42;16.67;;;14.90;;
20415;SDS011;10367;52.202;5.996;2022-10-16T09:31:14;15.87;;;14.27;;
20415;SDS011;10367;52.202;5.996;2022-10-16T09:33:47;16.50;;;13.67;;
20415;SDS011;10367;52.202;5.996;2022-10-16T09:36:21;18.30;;;13.77;;
20415;SDS011;10367;52.202;5.996;2022-10-16T09:39:01;18.97;;;15.70;;
20415;SDS011;10367;52.202;5.996;2022-10-16T09:41:33;16.73;;;15.00;;
20415;SDS011;10367;52.202;5.996;2022-10-16T09:44:03;18.53;;;13.77;;
20415;SDS011;10367;52.202;5.996;2022-10-16T09:46:44;17.17;;;15.33;;
20415;SDS011;10367;52.202;5.996;2022-10-16T09:49:20;15.97;;;14.10;;
20415;SDS011;10367;52.202;5.996;2022-10-16T09:51:50;23.90;;;15.67;;
20415;SDS011;10367;52.202;5.996;2022-10-16T09:54:30;15.13;;;13.83;;
20415;SDS011;10367;52.202;5.996;2022-10-16T09:57:05;18.03;;;14.37;;
20415;SDS011;10367;52.202;5.996;2022-10-16T09:59:44;15.43;;;13.90;;
20415;SDS011;10367;52.202;5.996;2022-10-16T10:02:16;18.97;;;14.80;;
20415;SDS011;10367;52.202;5.996;2022-10-16T10:04:48;16.90;;;15.13;;
20415;SDS011;10367;52.202;5.996;2022-10-16T10:07:23;16.37;;;14.73;;
20415;SDS011;10367;52.202;5.996;2022-10-16T10:09:55;17.13;;;14.83;;
20415;SDS011;10367;52.202;5.996;2022-10-16T10:12:25;15.90;;;14.33;;
20415;SDS011;10367;52.202;5.996;2022-10-16T10:14:56;16.47;;;14.83;;
20415;SDS011;10367;52.202;5.996;2022-10-16T10:17:32;15.23;;;13.80;;
20415;SDS011;10367;52.202;5.996;2022-10-16T10:20:13;17.63;;;15.93;;
20415;SDS011;10367;52.202;5.996;2022-10-16T10:22:51;21.57;;;16.43;;
20415;SDS011;10367;52.202;5.996;2022-10-16T10:28:17;19.33;;;16.50;;
20415;SDS011;10367;52.202;5.996;2022-10-16T10:30:55;17.53;;;15.70;;
20415;SDS011;10367;52.202;5.996;2022-10-16T10:33:33;16.63;;;15.07;;
20415;SDS011;10367;52.202;5.996;2022-10-16T10:36:12;18.97;;;16.33;;
20415;SDS011;10367;52.202;5.996;2022-10-16T10:38:54;21.03;;;15.33;;
20415;SDS011;10367;52.202;5.996;2022-10-16T10:47:34;23.43;;;17.27;;
20415;SDS011;10367;52.202;5.996;2022-10-16T10:50:17;16.53;;;14.97;;
20415;SDS011;10367;52.202;5.996;2022-10-16T10:52:58;18.47;;;16.73;;
20415;SDS011;10367;52.202;5.996;2022-10-16T10:55:33;19.60;;;16.17;;
20415;SDS011;10367;52.202;5.996;2022-10-16T10:58:12;17.47;;;15.97;;
20415;SDS011;10367;52.202;5.996;2022-10-16T11:01:01;17.00;;;15.47;;
20415;SDS011;10367;52.202;5.996;2022-10-16T11:03:40;17.90;;;16.10;;
20415;SDS011;10367;52.202;5.996;2022-10-16T11:06:28;17.43;;;15.83;;
20415;SDS011;10367;52.202;5.996;2022-10-16T11:09:02;18.03;;;15.93;;
20415;SDS011;10367;52.202;5.996;2022-10-16T11:11:38;17.57;;;15.80;;
20415;SDS011;10367;52.202;5.996;2022-10-16T11:14:14;27.37;;;15.87;;
20415;SDS011;10367;52.202;5.996;2022-10-16T11:16:48;17.97;;;16.03;;
20415;SDS011;10367;52.202;5.996;2022-10-16T11:19:25;18.87;;;16.70;;
20415;SDS011;10367;52.202;5.996;2022-10-16T11:22:04;17.00;;;15.50;;
20415;SDS011;10367;52.202;5.996;2022-10-16T11:24:41;16.40;;;14.90;;
20415;SDS011;10367;52.202;5.996;2022-10-16T11:27:14;17.60;;;15.83;;
20415;SDS011;10367;52.202;5.996;2022-10-16T11:29:49;23.97;;;16.83;;
20415;SDS011;10367;52.202;5.996;2022-10-16T11:32:23;19.13;;;16.07;;
20415;SDS011;10367;52.202;5.996;2022-10-16T11:34:57;19.53;;;17.10;;
20415;SDS011;10367;52.202;5.996;2022-10-16T11:37:32;17.57;;;15.70;;
20415;SDS011;10367;52.202;5.996;2022-10-16T11:40:09;17.13;;;15.63;;
20415;SDS011;10367;52.202;5.996;2022-10-16T11:42:48;21.73;;;18.13;;
20415;SDS011;10367;52.202;5.996;2022-10-16T11:45:24;20.37;;;17.20;;
20415;SDS011;10367;52.202;5.996;2022-10-16T11:47:59;24.50;;;18.00;;
20415;SDS011;10367;52.202;5.996;2022-10-16T11:50:36;19.13;;;17.03;;
20415;SDS011;10367;52.202;5.996;2022-10-16T11:53:11;21.77;;;17.07;;
20415;SDS011;10367;52.202;5.996;2022-10-16T11:55:47;23.73;;;18.47;;
20415;SDS011;10367;52.202;5.996;2022-10-16T11:58:19;20.43;;;16.80;;
20415;SDS011;10367;52.202;5.996;2022-10-16T12:00:56;18.73;;;16.90;;
20415;SDS011;10367;52.202;5.996;2022-10-16T12:03:29;19.47;;;17.63;;
20415;SDS011;10367;52.202;5.996;2022-10-16T12:09:00;24.57;;;18.70;;
20415;SDS011;10367;52.202;5.996;2022-10-16T12:11:31;20.67;;;18.50;;
20415;SDS011;10367;52.202;5.996;2022-10-16T12:17:24;18.37;;;16.63;;
20415;SDS011;10367;52.202;5.996;2022-10-16T12:19:58;19.90;;;17.90;;
20415;SDS011;10367;52.202;5.996;2022-10-16T12:22:29;21.80;;;19.50;;
20415;SDS011;10367;52.202;5.996;2022-10-16T12:25:17;20.83;;;17.67;;
20415;SDS011;10367;52.202;5.996;2022-10-16T12:27:53;19.43;;;17.17;;
20415;SDS011;10367;52.202;5.996;2022-10-16T12:30:24;21.67;;;16.70;;
20415;SDS011;10367;52.202;5.996;2022-10-16T12:33:02;17.23;;;15.53;;
20415;SDS011;10367;52.202;5.996;2022-10-16T12:35:33;18.53;;;16.77;;
20415;SDS011;10367;52.202;5.996;2022-10-16T12:38:15;18.27;;;16.20;;
20415;SDS011;10367;52.202;5.996;2022-10-16T12:40:53;19.00;;;17.27;;
20415;SDS011;10367;52.202;5.996;2022-10-16T12:43:27;17.23;;;15.73;;
20415;SDS011;10367;52.202;5.996;2022-10-16T12:46:05;16.57;;;15.33;;
20415;SDS011;10367;52.202;5.996;2022-10-16T12:48:52;23.33;;;17.37;;
20415;SDS011;10367;52.202;5.996;2022-10-16T12:51:34;24.63;;;16.73;;
20415;SDS011;10367;52.202;5.996;2022-10-16T12:54:04;18.57;;;16.70;;
20415;SDS011;10367;52.202;5.996;2022-10-16T12:56:46;17.27;;;15.97;;
20415;SDS011;10367;52.202;5.996;2022-10-16T12:59:24;20.07;;;17.57;;
20415;SDS011;10367;52.202;5.996;2022-10-16T13:05:13;17.93;;;16.23;;
20415;SDS011;10367;52.202;5.996;2022-10-16T13:07:54;20.03;;;17.90;;
20415;SDS011;10367;52.202;5.996;2022-10-16T13:10:32;21.23;;;17.67;;
20415;SDS011;10367;52.202;5.996;2022-10-16T13:13:15;19.57;;;17.40;;
20415;SDS011;10367;52.202;5.996;2022-10-16T13:18:55;19.03;;;17.03;;
20415;SDS011;10367;52.202;5.996;2022-10-16T13:21:37;19.03;;;17.53;;
20415;SDS011;10367;52.202;5.996;2022-10-16T13:24:25;19.53;;;17.27;;
20415;SDS011;10367;52.202;5.996;2022-10-16T13:27:06;19.00;;;17.07;;
20415;SDS011;10367;52.202;5.996;2022-10-16T13:29:40;18.70;;;17.10;;
20415;SDS011;10367;52.202;5.996;2022-10-16T13:32:10;20.97;;;17.53;;
20415;SDS011;10367;52.202;5.996;2022-10-16T13:34:44;21.70;;;19.63;;
20415;SDS011;10367;52.202;5.996;2022-10-16T13:37:18;21.57;;;18.57;;
20415;SDS011;10367;52.202;5.996;2022-10-16T13:39:49;21.27;;;19.27;;
20415;SDS011;10367;52.202;5.996;2022-10-16T13:42:21;20.23;;;18.10;;
20415;SDS011;10367;52.202;5.996;2022-10-16T13:44:55;18.07;;;16.53;;
20415;SDS011;10367;52.202;5.996;2022-10-16T13:47:25;21.70;;;19.33;;
20415;SDS011;10367;52.202;5.996;2022-10-16T13:49:59;21.63;;;19.47;;
20415;SDS011;10367;52.202;5.996;2022-10-16T13:52:29;19.17;;;17.50;;
20415;SDS011;10367;52.202;5.996;2022-10-16T13:54:58;19.77;;;18.00;;
20415;SDS011;10367;52.202;5.996;2022-10-16T13:57:28;19.10;;;17.27;;
20415;SDS011;10367;52.202;5.996;2022-10-16T13:59:58;21.73;;;19.47;;
20415;SDS011;10367;52.202;5.996;2022-10-16T14:02:29;19.40;;;17.57;;
20415;SDS011;10367;52.202;5.996;2022-10-16T14:05:02;19.33;;;17.57;;
20415;SDS011;10367;52.202;5.996;2022-10-16T14:07:32;19.90;;;18.10;;
20415;SDS011;10367;52.202;5.996;2022-10-16T14:10:04;19.87;;;17.23;;
20415;SDS011;10367;52.202;5.996;2022-10-16T14:12:35;19.37;;;17.57;;
20415;SDS011;10367;52.202;5.996;2022-10-16T14:15:15;19.37;;;17.37;;
20415;SDS011;10367;52.202;5.996;2022-10-16T14:17:48;21.53;;;19.43;;
20415;SDS011;10367;52.202;5.996;2022-10-16T14:20:18;24.03;;;18.37;;
20415;SDS011;10367;52.202;5.996;2022-10-16T14:22:49;20.93;;;18.93;;
20415;SDS011;10367;52.202;5.996;2022-10-16T14:25:28;20.10;;;18.30;;
20415;SDS011;10367;52.202;5.996;2022-10-16T14:28:02;20.47;;;18.27;;
20415;SDS011;10367;52.202;5.996;2022-10-16T14:30:34;17.70;;;16.20;;
20415;SDS011;10367;52.202;5.996;2022-10-16T14:33:04;20.10;;;17.50;;
20415;SDS011;10367;52.202;5.996;2022-10-16T14:35:35;19.07;;;17.07;;
20415;SDS011;10367;52.202;5.996;2022-10-16T14:38:06;18.57;;;16.93;;
20415;SDS011;10367;52.202;5.996;2022-10-16T14:40:47;19.90;;;18.00;;
20415;SDS011;10367;52.202;5.996;2022-10-16T14:43:20;18.77;;;17.00;;
20415;SDS011;10367;52.202;5.996;2022-10-16T14:45:52;19.93;;;18.13;;
20415;SDS011;10367;52.202;5.996;2022-10-16T14:48:23;19.00;;;17.23;;
20415;SDS011;10367;52.202;5.996;2022-10-16T14:50:52;19.23;;;17.43;;
20415;SDS011;10367;52.202;5.996;2022-10-16T14:53:21;20.43;;;17.37;;
20415;SDS011;10367;52.202;5.996;2022-10-16T14:55:50;20.43;;;17.80;;
20415;SDS011;10367;52.202;5.996;2022-10-16T14:58:20;18.23;;;16.47;;
20415;SDS011;10367;52.202;5.996;2022-10-16T15:00:51;22.50;;;19.33;;
20415;SDS011;10367;52.202;5.996;2022-10-16T15:03:20;19.40;;;17.33;;
20415;SDS011;10367;52.202;5.996;2022-10-16T15:05:49;19.77;;;17.73;;
20415;SDS011;10367;52.202;5.996;2022-10-16T15:11:23;17.70;;;16.13;;
20415;SDS011;10367;52.202;5.996;2022-10-16T15:13:53;18.53;;;16.87;;
20415;SDS011;10367;52.202;5.996;2022-10-16T15:16:24;20.40;;;18.27;;
20415;SDS011;10367;52.202;5.996;2022-10-16T15:18:53;20.90;;;18.73;;
20415;SDS011;10367;52.202;5.996;2022-10-16T15:21:24;22.40;;;17.37;;